Time;durP1;ratioP1;P1;durP2;ratioP2;P2;SDS_P1;SDS_P2;PMS_P1;PMS_P2;Temp;Humidity;BMP_temperature;BMP_pressure;BME280_temperature;BME280_humidity;BME280_pressure;Samples;Min_cycle;Max_cycle;Signal;HPM_P1;HPM_P2
2023/09/24 04:31:35;;;;;;;;;7.75;6.00;;;;;22.71;41.44;101966.56;1422191;26;45937;-78
2023/09/24 04:34:01;;;;;;;;;5.75;5.75;;;;;22.57;41.31;101948.50;5055170;28;45438;-77
2023/09/24 04:36:26;;;;;;;;;5.25;5.25;;;;;22.70;41.43;101965.69;5037086;28;45382;-77
2023/09/24 04:38:52;;;;;;;;;4.00;4.00;;;;;22.54;41.08;101944.13;5054838;28;46279;-79
2023/09/24 04:41:20;;;;;;;;;5.00;5.00;;;;;22.57;41.25;101949.38;5054551;28;46818;-78
2023/09/24 04:43:46;;;;;;;;;5.00;5.00;;;;;22.58;41.32;101950.22;5036613;28;45702;-78
2023/09/24 04:46:11;;;;;;;;;4.50;4.50;;;;;22.51;41.35;101943.50;5054050;28;45464;-78
2023/09/24 04:48:37;;;;;;;;;6.75;4.50;;;;;22.56;41.21;101941.28;5054545;28;45495;-77
2023/09/24 04:51:02;;;;;;;;;6.50;5.00;;;;;22.58;41.52;101959.31;5054657;28;45444;-77
2023/09/24 04:53:28;;;;;;;;;5.00;5.00;;;;;22.58;41.58;101964.78;5054869;28;45446;-78
2023/09/24 04:55:54;;;;;;;;;6.50;4.75;;;;;22.62;41.24;101962.69;5053856;28;45422;-78
2023/09/24 04:58:20;;;;;;;;;5.00;5.00;;;;;22.48;41.72;101941.88;5054594;28;45532;-77
2023/09/24 05:00:45;;;;;;;;;3.50;3.50;;;;;22.55;41.23;101956.81;5036105;28;48348;-78
2023/09/24 05:03:11;;;;;;;;;7.00;5.00;;;;;22.44;41.19;101944.97;5054618;28;45257;-76
2023/09/24 05:05:42;;;;;;;;;6.00;6.00;;;;;22.46;41.58;101952.03;5054212;28;45383;-77
2023/09/24 05:08:07;;;;;;;;;2.25;2.25;;;;;22.47;41.32;101947.44;5054149;28;45557;-78
2023/09/24 05:10:33;;;;;;;;;5.00;4.25;;;;;22.43;41.41;101949.56;5052865;28;46029;-79
2023/09/24 05:12:58;;;;;;;;;4.50;4.50;;;;;22.45;41.52;101961.25;5052803;28;45888;-72
2023/09/24 05:15:24;;;;;;;;;4.00;4.00;;;;;22.39;41.43;101967.16;5056821;28;45295;-74
2023/09/24 05:17:49;;;;;;;;;2.50;2.50;;;;;22.34;41.50;101950.25;5054407;28;45518;-74
2023/09/24 05:20:15;;;;;;;;;2.00;2.00;;;;;22.36;41.80;101958.34;5053504;28;50378;-75
2023/09/24 05:22:41;;;;;;;;;5.00;5.00;;;;;22.37;41.62;101977.34;5036414;28;45297;-72
2023/09/24 05:25:07;;;;;;;;;6.75;5.00;;;;;22.24;41.47;101958.28;5054096;28;45462;-74
2023/09/24 05:27:33;;;;;;;;;7.00;4.00;;;;;22.40;41.36;101968.91;5053555;28;45383;-73
2023/09/24 05:30:00;;;;;;;;;6.00;4.00;;;;;22.38;41.47;101967.28;5053972;28;46456;-75
2023/09/24 05:32:26;;;;;;;;;7.25;6.75;;;;;22.48;41.44;101966.47;5036000;28;45528;-75
2023/09/24 05:34:54;;;;;;;;;5.50;5.00;;;;;22.48;41.54;101965.59;5053571;28;45447;-76
2023/09/24 05:37:20;;;;;;;;;2.50;2.50;;;;;22.47;41.48;101967.44;5054444;28;45375;-76
2023/09/24 05:39:45;;;;;;;;;6.00;6.00;;;;;22.49;41.07;101964.59;5053786;28;46061;-73
2023/09/24 05:42:11;;;;;;;;;6.50;6.50;;;;;22.59;41.24;101969.25;5035754;28;45458;-73
2023/09/24 05:44:36;;;;;;;;;6.00;6.00;;;;;22.64;41.16;101972.50;5054158;28;45314;-76
2023/09/24 05:47:02;;;;;;;;;4.50;4.50;;;;;22.42;41.10;101980.59;5054016;28;45450;-74
2023/09/24 05:49:28;;;;;;;;;5.75;5.75;;;;;22.30;41.96;101976.06;5053463;28;46122;-76
2023/09/24 05:51:54;;;;;;;;;5.25;5.25;;;;;22.22;41.78;101971.19;5035857;28;45398;-75
2023/09/24 05:54:19;;;;;;;;;4.50;4.50;;;;;22.39;41.94;101990.88;5053927;28;45343;-75
2023/09/24 05:56:45;;;;;;;;;5.50;5.50;;;;;22.43;41.69;101998.75;5053638;28;45482;-75
2023/09/24 05:59:10;;;;;;;;;8.00;6.75;;;;;22.38;41.67;101997.34;5051727;28;50167;-74
2023/09/24 06:01:35;;;;;;;;;7.50;6.00;;;;;22.44;41.76;101988.69;5053333;28;45359;-76
2023/09/24 06:04:01;;;;;;;;;6.25;4.00;;;;;22.31;41.96;101955.06;5053821;28;45394;-77
2023/09/24 06:06:26;;;;;;;;;6.25;6.25;;;;;22.53;41.63;101990.72;5053963;28;45304;-74
2023/09/24 06:08:53;;;;;;;;;5.75;5.75;;;;;22.40;41.40;101987.16;5053381;28;46066;-75
2023/09/24 06:11:18;;;;;;;;;6.00;5.00;;;;;22.37;41.84;101992.88;5053629;28;45293;-74
2023/09/24 06:13:44;;;;;;;;;5.00;5.00;;;;;22.42;41.90;101988.81;5053272;28;45404;-76
2023/09/24 06:16:09;;;;;;;;;7.50;5.75;;;;;22.40;41.64;101974.38;5053441;28;45567;-75
2023/09/24 06:18:34;;;;;;;;;9.50;8.00;;;;;22.42;41.60;101990.66;5053030;28;46030;-75
2023/09/24 06:21:02;;;;;;;;;7.25;5.25;;;;;22.36;41.56;101992.00;5054644;28;45344;-74
2023/09/24 06:23:28;;;;;;;;;9.00;6.75;;;;;22.43;41.46;101992.41;5057207;28;45387;-77
2023/09/24 06:26:00;;;;;;;;;9.25;6.00;;;;;22.30;41.17;101999.78;5056862;28;45517;-74
2023/09/24 06:28:26;;;;;;;;;8.00;7.75;;;;;22.24;41.42;102003.84;5056705;28;46189;-74
2023/09/24 06:31:03;;;;;;;;;7.75;7.75;;;;;22.24;41.79;102007.47;5056874;28;45437;-77
2023/09/24 06:33:29;;;;;;;;;7.00;6.00;;;;;22.29;41.58;102019.91;5056854;28;45533;-75
2023/09/24 06:35:55;;;;;;;;;7.00;6.25;;;;;22.26;41.77;102016.41;5056789;28;45312;-75
2023/09/24 06:38:20;;;;;;;;;5.50;5.50;;;;;22.29;41.80;102018.03;5056625;28;45408;-75
2023/09/24 06:40:46;;;;;;;;;7.25;6.00;;;;;22.21;41.81;102018.59;5056510;28;45375;-76
2023/09/24 06:43:11;;;;;;;;;3.25;3.00;;;;;22.26;41.36;102012.81;5057003;28;45330;-74
2023/09/24 06:45:36;;;;;;;;;4.25;4.25;;;;;22.26;41.70;102015.53;5038787;28;45523;-74
2023/09/24 06:48:03;;;;;;;;;6.75;5.00;;;;;22.24;41.85;102028.44;5056592;28;46263;-74
2023/09/24 06:50:28;;;;;;;;;6.75;6.25;;;;;22.22;42.06;102025.81;5056776;28;45275;-75
2023/09/24 06:52:53;;;;;;;;;6.25;6.25;;;;;22.15;41.91;102015.47;5057291;28;45169;-75
2023/09/24 06:55:19;;;;;;;;;6.25;6.25;;;;;22.10;41.99;102018.56;5056567;28;45366;-75
2023/09/24 06:57:44;;;;;;;;;6.00;6.00;;;;;22.11;42.02;102011.22;5056051;28;51489;-75
2023/09/24 07:00:10;;;;;;;;;13.00;7.00;;;;;22.11;41.79;102012.09;5056505;28;45387;-75
2023/09/24 07:02:36;;;;;;;;;8.50;5.25;;;;;22.07;42.38;102012.44;5056456;28;45342;-75
2023/09/24 07:05:01;;;;;;;;;5.50;5.25;;;;;22.12;41.79;102015.69;5057122;28;45351;-73
2023/09/24 07:07:27;;;;;;;;;4.25;4.25;;;;;22.17;41.92;102029.88;5056726;28;45343;-75
2023/09/24 07:09:53;;;;;;;;;5.50;4.25;;;;;22.15;41.90;102026.38;5056613;28;45370;-74
2023/09/24 07:12:19;;;;;;;;;8.75;7.00;;;;;22.17;42.08;102013.50;5056230;28;45333;-74
2023/09/24 07:14:44;;;;;;;;;6.75;5.50;;;;;22.29;41.82;102026.22;5056110;28;45488;-74
2023/09/24 07:17:09;;;;;;;;;5.50;5.50;;;;;22.27;41.73;102009.97;5056399;28;45346;-73
2023/09/24 07:19:35;;;;;;;;;4.00;4.00;;;;;22.41;41.42;102019.84;5037716;28;45430;-72
2023/09/24 07:22:01;;;;;;;;;4.25;4.00;;;;;22.42;41.30;102026.19;5056569;28;45432;-73
2023/09/24 07:24:26;;;;;;;;;6.75;6.75;;;;;22.67;41.08;102027.94;5056214;28;45323;-74
2023/09/24 07:26:52;;;;;;;;;5.00;4.25;;;;;22.59;41.11;102018.47;5055843;28;47429;-75
2023/09/24 07:29:17;;;;;;;;;6.75;5.75;;;;;22.54;41.23;102033.47;5056164;28;45863;-74
2023/09/24 07:31:42;;;;;;;;;6.00;3.50;;;;;22.49;40.96;102022.88;5061112;28;45434;-76
2023/09/24 07:34:09;;;;;;;;;5.75;5.75;;;;;22.50;41.37;102027.34;5059488;28;45744;-75
2023/09/24 07:36:35;;;;;;;;;6.50;4.00;;;;;22.47;41.30;102018.50;5056101;28;47295;-73
2023/09/24 07:39:00;;;;;;;;;6.00;5.50;;;;;22.46;40.96;102005.81;5037770;28;45262;-74
2023/09/24 07:41:25;;;;;;;;;8.00;6.25;;;;;22.54;40.96;102020.66;5060828;28;45311;-74
2023/09/24 07:43:51;;;;;;;;;6.00;4.50;;;;;22.61;41.22;102002.81;5058414;28;45248;-75
2023/09/24 07:46:16;;;;;;;;;7.00;5.50;;;;;22.69;40.88;102015.03;5055524;28;45411;-75
2023/09/24 07:48:44;;;;;;;;;5.25;4.50;;;;;22.75;40.70;102029.13;5055934;28;45550;-75
2023/09/24 07:51:12;;;;;;;;;5.25;4.25;;;;;22.65;40.62;102014.38;5056217;28;45297;-75
2023/09/24 07:53:37;;;;;;;;;5.00;5.00;;;;;22.80;40.73;102028.75;5055785;28;45492;-76
2023/09/24 07:56:08;;;;;;;;;6.75;5.75;;;;;22.87;40.57;102025.47;5055749;28;45920;-74
2023/09/24 07:58:35;;;;;;;;;6.25;5.25;;;;;23.01;40.23;102032.59;5055577;28;45698;-76
2023/09/24 08:01:14;;;;;;;;;5.00;5.00;;;;;22.99;40.15;102026.34;5055894;28;45437;-75
2023/09/24 08:03:41;;;;;;;;;4.25;4.25;;;;;23.07;40.00;102031.22;5055445;28;45219;-75
2023/09/24 08:06:07;;;;;;;;;5.75;5.75;;;;;23.11;40.34;102036.34;5055525;28;45467;-75
2023/09/24 08:08:34;;;;;;;;;11.00;8.25;;;;;23.15;40.26;102032.38;5055071;28;45343;-76
2023/09/24 08:11:00;;;;;;;;;5.75;5.75;;;;;23.30;39.72;102038.53;5037174;28;45461;-78
2023/09/24 08:13:27;;;;;;;;;5.00;5.00;;;;;23.32;39.32;102037.38;5054426;28;45303;-76
2023/09/24 08:15:52;;;;;;;;;4.00;4.00;;;;;23.39;39.33;102037.78;5054422;28;45996;-76
2023/09/24 08:18:19;;;;;;;;;6.25;5.25;;;;;23.43;39.35;102036.53;5055460;28;45421;-77
2023/09/24 08:20:45;;;;;;;;;5.25;5.25;;;;;23.49;39.63;102029.72;5062773;28;45506;-75
2023/09/24 08:23:11;;;;;;;;;5.00;5.00;;;;;23.55;39.18;102029.25;5057767;28;45450;-79
2023/09/24 08:25:37;;;;;;;;;5.75;5.00;;;;;23.67;38.73;102031.00;5054889;28;45514;-76
2023/09/24 08:28:03;;;;;;;;;8.75;5.00;;;;;23.71;38.91;102033.38;5054824;28;45465;-74
2023/09/24 08:30:30;;;;;;;;;5.00;5.00;;;;;23.65;38.84;102038.44;5055459;28;45386;-76
2023/09/24 08:32:56;;;;;;;;;4.50;4.50;;;;;23.64;39.08;102039.47;5053239;28;45513;-74
2023/09/24 08:35:22;;;;;;;;;5.00;5.00;;;;;23.79;38.60;102046.44;5053669;28;46321;-76
2023/09/24 08:37:48;;;;;;;;;7.75;5.50;;;;;23.95;38.14;102037.84;5053858;28;45363;-76
2023/09/24 08:40:15;;;;;;;;;5.25;3.25;;;;;23.81;38.54;102030.78;5054054;28;45464;-76
2023/09/24 08:42:45;;;;;;;;;7.50;6.50;;;;;23.93;38.72;102031.63;5054285;28;45473;-76
2023/09/24 08:45:13;;;;;;;;;5.75;5.75;;;;;24.07;38.89;102031.38;5054236;28;46023;-76
2023/09/24 08:47:39;;;;;;;;;6.00;6.00;;;;;24.09;38.94;102032.97;5054018;28;45406;-75
2023/09/24 08:50:08;;;;;;;;;5.00;5.00;;;;;24.16;38.79;102032.50;5055288;28;45513;-76
2023/09/24 08:52:40;;;;;;;;;6.00;4.75;;;;;24.25;38.87;102027.13;5055282;28;45475;-76
2023/09/24 08:55:08;;;;;;;;;2.00;2.00;;;;;24.32;38.76;102013.81;5024616;28;47138;-76
2023/09/24 08:57:34;;;;;;;;;5.00;5.00;;;;;24.42;38.06;102017.47;5049756;28;45511;-77
2023/09/24 09:00:00;;;;;;;;;3.75;3.75;;;;;24.44;38.07;102018.22;5048732;28;45625;-76
2023/09/24 09:02:25;;;;;;;;;3.75;3.75;;;;;24.43;38.28;102009.13;5055245;28;45501;-74
2023/09/24 09:04:51;;;;;;;;;4.00;4.00;;;;;24.55;38.16;102017.34;5054379;28;47372;-76
2023/09/24 09:07:17;;;;;;;;;5.25;4.00;;;;;24.68;38.01;102009.78;5059906;28;45485;-76
2023/09/24 09:09:56;;;;;;;;;6.00;4.00;;;;;24.73;37.79;102013.03;5058287;28;45459;-76
2023/09/24 09:12:23;;;;;;;;;6.00;6.00;;;;;24.75;37.79;102019.25;5054725;28;45585;-75
2023/09/24 09:14:48;;;;;;;;;3.25;3.25;;;;;24.91;38.06;102011.50;5054202;28;46017;-77
2023/09/24 09:17:14;;;;;;;;;6.00;3.00;;;;;24.91;37.32;102006.00;5054489;28;45249;-78
2023/09/24 09:19:59;;;;;;;;;5.75;4.00;;;;;24.88;37.67;102009.84;5053986;28;45515;-77
2023/09/24 09:22:29;;;;;;;;;7.00;5.00;;;;;25.00;36.97;102009.81;5054363;28;45385;-76
2023/09/24 09:25:04;;;;;;;;;4.25;4.25;;;;;25.03;37.37;102015.91;5053986;28;45733;-77
2023/09/24 09:27:39;;;;;;;;;3.25;3.25;;;;;24.97;36.75;102013.69;5059242;28;45573;-76
2023/09/24 09:30:16;;;;;;;;;5.00;4.00;;;;;25.03;37.23;101984.84;5054125;28;45220;-78
2023/09/24 09:32:43;;;;;;;;;5.50;4.00;;;;;25.25;36.98;102010.31;5053923;28;45429;-81
2023/09/24 09:35:09;;;;;;;;;3.00;3.00;;;;;25.31;37.62;102010.75;5035883;28;48226;-79
2023/09/24 09:37:35;;;;;;;;;6.00;3.00;;;;;25.21;36.84;101980.50;5054931;28;45435;-80
2023/09/24 09:40:03;;;;;;;;;4.00;2.00;;;;;25.43;37.16;102010.56;5054501;28;45518;-77
2023/09/24 09:42:33;;;;;;;;;4.75;3.00;;;;;25.39;36.69;101983.50;5054063;28;45331;-76
2023/09/24 09:45:02;;;;;;;;;4.50;3.25;;;;;25.35;36.66;101985.63;5054058;28;45544;-77
2023/09/24 09:47:28;;;;;;;;;3.00;3.00;;;;;25.31;35.97;101980.56;5054174;28;45419;-83
2023/09/24 09:50:01;;;;;;;;;5.00;3.00;;;;;25.48;36.70;101989.03;5054265;28;45480;-77
2023/09/24 09:52:38;;;;;;;;;3.75;2.00;;;;;25.45;36.03;101967.31;5054018;28;45379;-79
2023/09/24 09:55:05;;;;;;;;;3.25;3.00;;;;;25.52;35.32;101971.25;5037114;28;47156;-78
2023/09/24 09:57:34;;;;;;;;;7.00;4.00;;;;;25.53;35.92;101984.00;5057404;28;45372;-76
2023/09/24 10:00:05;;;;;;;;;3.00;3.00;;;;;25.65;36.35;101965.59;5057541;28;45386;-79
2023/09/24 10:02:34;;;;;;;;;2.25;1.50;;;;;25.61;35.02;101975.97;5057485;28;45553;-74
2023/09/24 10:05:01;;;;;;;;;2.00;2.00;;;;;25.63;34.62;101973.97;5057021;28;46159;-76
2023/09/24 10:07:26;;;;;;;;;4.50;2.50;;;;;25.67;34.84;101971.81;5057163;28;45364;-75
2023/09/24 10:09:52;;;;;;;;;4.00;3.25;;;;;25.70;34.02;101954.16;5057479;28;45339;-74
2023/09/24 10:12:37;;;;;;;;;2.50;2.50;;;;;25.83;34.00;101971.28;5038866;28;46074;-75
2023/09/24 10:15:28;;;;;;;;;1.00;1.00;;;;;25.76;33.92;101960.00;5057189;28;46140;-76
2023/09/24 10:18:09;;;;;;;;;2.00;2.00;;;;;25.76;34.33;101960.00;5057248;28;45507;-77
2023/09/24 10:20:50;;;;;;;;;2.00;2.00;;;;;25.90;33.94;101961.47;5056954;28;45224;-74
2023/09/24 10:23:30;;;;;;;;;3.75;2.75;;;;;26.05;34.62;101957.31;5057081;28;45340;-77
2023/09/24 10:26:00;;;;;;;;;2.00;2.00;;;;;26.21;34.24;101945.75;5056932;28;45383;-75
2023/09/24 10:28:51;;;;;;;;;3.75;2.00;;;;;26.32;34.54;101956.69;5056811;28;45374;-78
2023/09/24 10:31:21;;;;;;;;;1.50;1.50;;;;;26.32;34.15;101940.19;5057218;28;45509;-75
2023/09/24 10:33:52;;;;;;;;;1.25;1.25;;;;;26.39;33.48;101941.34;5065492;28;45499;-75
2023/09/24 10:36:27;;;;;;;;;2.25;2.25;;;;;26.34;33.33;101936.28;5056722;28;45591;-76
2023/09/24 10:39:16;;;;;;;;;3.75;3.50;;;;;26.51;32.66;101934.69;5056595;28;45188;-74
2023/09/24 10:42:09;;;;;;;;;7.00;3.00;;;;;26.37;32.15;101926.84;5056043;28;45469;-72
2023/09/24 10:44:37;;;;;;;;;5.00;3.00;;;;;26.44;31.82;101929.91;5056168;28;45444;-74
2023/09/24 10:47:30;;;;;;;;;2.25;2.25;;;;;26.56;31.16;101937.88;5056851;28;46626;-75
2023/09/24 10:50:12;;;;;;;;;1.00;1.00;;;;;26.40;31.03;101932.06;5056472;28;45427;-71
2023/09/24 10:53:03;;;;;;;;;1.50;1.50;;;;;26.57;30.98;101931.34;5055365;28;45436;-71
2023/09/24 10:55:29;;;;;;;;;2.25;2.25;;;;;26.70;30.89;101931.06;5052711;28;45578;-69
2023/09/24 10:57:59;;;;;;;;;3.00;3.00;;;;;26.68;30.58;101919.34;5056668;28;45321;-72
2023/09/24 11:00:25;;;;;;;;;1.75;1.75;;;;;26.90;30.24;101915.38;5037780;28;45419;-71
2023/09/24 11:02:56;;;;;;;;;5.00;2.00;;;;;27.09;30.35;101913.50;5055719;28;45390;-72
2023/09/24 11:05:22;;;;;;;;;0.00;0.00;;;;;27.33;29.09;101912.09;5056154;28;46107;-74
2023/09/24 11:07:47;;;;;;;;;1.50;1.50;;;;;27.70;28.89;101895.59;5055818;28;46209;-74
2023/09/24 11:10:25;;;;;;;;;1.50;1.50;;;;;28.01;28.08;101902.50;5055493;28;45374;-71
2023/09/24 11:12:55;;;;;;;;;1.50;1.25;;;;;28.27;28.25;101904.50;5037183;28;45483;-70
2023/09/24 11:15:24;;;;;;;;;2.00;2.00;;;;;28.28;27.63;101886.94;5056330;28;45400;-77
2023/09/24 11:17:50;;;;;;;;;3.00;3.00;;;;;28.80;27.61;101904.50;5056402;28;46207;-72
2023/09/24 11:20:17;;;;;;;;;1.75;1.75;;;;;29.04;26.32;101903.81;5055599;28;45521;-71
2023/09/24 11:22:44;;;;;;;;;2.00;2.00;;;;;29.31;26.90;101898.13;5056230;28;45292;-72
2023/09/24 11:25:14;;;;;;;;;2.00;2.00;;;;;29.77;26.54;101896.81;5021102;28;46247;-77
2023/09/24 11:27:50;;;;;;;;;2.75;1.75;;;;;29.95;25.72;101905.00;5056152;28;45414;-77
2023/09/24 11:30:17;;;;;;;;;0.75;0.75;;;;;30.29;26.11;101910.41;5063050;28;45312;-74
2023/09/24 11:32:44;;;;;;;;;3.50;2.25;;;;;30.68;25.28;101905.13;5064593;28;46143;-74
2023/09/24 11:35:11;;;;;;;;;3.00;3.00;;;;;31.01;25.09;101897.66;5064405;28;45473;-73
2023/09/24 11:37:46;;;;;;;;;5.75;1.75;;;;;31.29;24.82;101899.03;5064752;28;46407;-76
2023/09/24 11:40:34;;;;;;;;;1.75;1.75;;;;;31.34;23.58;101890.16;5063334;28;45405;-77
2023/09/24 11:43:21;;;;;;;;;2.25;2.25;;;;;31.43;24.11;101878.00;5058334;28;45331;-78
2023/09/24 11:45:50;;;;;;;;;2.00;2.00;;;;;31.83;23.06;101874.19;5054579;28;45482;-77
2023/09/24 11:48:23;;;;;;;;;3.25;1.75;;;;;31.99;23.08;101871.31;5055542;28;46129;-75
2023/09/24 11:50:50;;;;;;;;;1.25;1.00;;;;;32.15;23.79;101879.56;5037204;28;45520;-76
2023/09/24 11:53:17;;;;;;;;;2.50;1.00;;;;;32.14;23.52;101882.50;5058776;28;45430;-77
2023/09/24 11:55:43;;;;;;;;;1.25;1.25;;;;;32.51;22.96;101868.72;5057886;28;45400;-78
2023/09/24 11:58:13;;;;;;;;;1.00;1.00;;;;;32.69;22.47;101872.06;5055373;28;45938;-76
2023/09/24 12:00:44;;;;;;;;;1.25;1.25;;;;;32.72;22.00;101854.16;5055316;28;45458;-77
2023/09/24 12:03:12;;;;;;;;;3.00;2.00;;;;;33.46;21.50;101852.28;5055875;28;45398;-75
2023/09/24 12:05:38;;;;;;;;;1.00;1.00;;;;;34.43;21.29;101850.91;5063185;28;45393;-77
2023/09/24 12:08:05;;;;;;;;;1.25;1.25;;;;;35.05;20.43;101847.34;5055600;28;45375;-78
2023/09/24 12:10:33;;;;;;;;;1.00;1.00;;;;;35.00;19.97;101838.75;5055432;28;45423;-79
2023/09/24 12:13:01;;;;;;;;;2.00;2.00;;;;;35.23;20.19;101844.03;5055613;28;45359;-75
2023/09/24 12:15:29;;;;;;;;;3.75;2.00;;;;;35.93;19.33;101828.91;5048912;28;46204;-81
2023/09/24 12:17:56;;;;;;;;;2.00;2.00;;;;;36.65;18.64;101826.25;5038785;28;46513;-75
2023/09/24 12:20:21;;;;;;;;;1.00;1.00;;;;;37.93;18.89;101832.16;5056276;27;45483;-76
2023/09/24 12:22:47;;;;;;;;;2.50;1.00;;;;;39.23;17.24;101839.72;5061805;28;45491;-75
2023/09/24 12:25:12;;;;;;;;;1.00;1.00;;;;;39.24;16.78;101835.81;5065909;27;45507;-76
2023/09/24 12:27:39;;;;;;;;;3.00;1.50;;;;;39.38;16.66;101828.97;5042878;28;46835;-78
2023/09/24 12:30:08;;;;;;;;;1.50;1.50;;;;;39.93;16.33;101812.06;5034168;28;45476;-80
2023/09/24 12:32:37;;;;;;;;;0.00;0.00;;;;;40.61;15.50;101822.88;5034152;28;45372;-77
2023/09/24 12:35:03;;;;;;;;;2.25;2.00;;;;;41.14;15.25;101815.22;5041880;28;45599;-77
2023/09/24 12:37:29;;;;;;;;;1.00;1.00;;;;;41.97;14.50;101807.41;5058090;28;45612;-75
2023/09/24 12:39:55;;;;;;;;;2.00;2.00;;;;;42.23;14.45;101801.13;5034900;28;45327;-75
2023/09/24 12:42:21;;;;;;;;;1.75;1.75;;;;;41.74;15.34;101809.19;5045278;28;45368;-75
2023/09/24 12:44:48;;;;;;;;;2.00;2.00;;;;;41.74;14.91;101806.38;5039211;28;45310;-77
2023/09/24 12:47:13;;;;;;;;;2.00;1.33;;;;;42.57;14.18;101804.81;5053678;27;47165;-76
2023/09/24 12:49:39;;;;;;;;;2.00;2.00;;;;;43.08;14.20;101786.72;5034804;28;45325;-75
2023/09/24 12:52:04;;;;;;;;;2.00;2.00;;;;;43.76;14.67;101800.34;5035003;28;45367;-76
2023/09/24 12:54:30;;;;;;;;;1.67;1.00;;;;;43.89;13.45;101798.22;5034955;28;45856;-76
2023/09/24 12:56:57;;;;;;;;;4.25;2.75;;;;;43.33;13.62;101797.53;5034725;28;46081;-76
2023/09/24 12:59:24;;;;;;;;;2.00;2.00;;;;;43.53;13.30;101783.66;5035057;28;45478;-80
2023/09/24 13:01:50;;;;;;;;;4.75;1.25;;;;;43.56;14.40;101773.81;5035420;28;45364;-76
2023/09/24 13:04:15;;;;;;;;;2.00;1.00;;;;;43.74;13.50;101773.47;5054824;28;45247;-74
2023/09/24 13:06:44;;;;;;;;;1.75;1.75;;;;;44.58;13.72;101781.38;5040707;28;49802;-73
2023/09/24 13:09:16;;;;;;;;;3.00;1.67;;;;;44.18;13.84;101771.38;5034808;28;45513;-76
2023/09/24 13:11:45;;;;;;;;;1.67;0.67;;;;;42.82;14.15;101779.00;5034428;28;45319;-77
2023/09/24 13:14:12;;;;;;;;;0.00;0.00;;;;;41.98;14.36;101755.56;5043768;28;45332;-78
2023/09/24 13:16:38;;;;;;;;;0.67;0.67;;;;;41.31;15.27;101770.28;5041086;28;45299;-81
2023/09/24 13:19:03;;;;;;;;;4.00;2.00;;;;;41.33;15.66;101756.81;5034627;28;45556;-76
2023/09/24 13:21:28;;;;;;;;;2.00;1.25;;;;;41.88;14.65;101768.34;5035685;28;45575;-75
2023/09/24 13:23:54;;;;;;;;;1.00;1.00;;;;;42.74;14.85;101763.34;5047746;28;45564;-74
2023/09/24 13:26:20;;;;;;;;;1.50;1.50;;;;;43.11;14.11;101746.69;5034383;28;46554;-73
2023/09/24 13:28:45;;;;;;;;;2.75;1.25;;;;;43.93;14.21;101751.34;5034308;28;45449;-77
2023/09/24 13:31:11;;;;;;;;;0.25;0.25;;;;;44.35;12.69;101759.97;5033905;28;45407;-76
2023/09/24 13:33:36;;;;;;;;;1.00;1.00;;;;;44.70;12.80;101756.53;5040203;28;45476;-76
2023/09/24 13:36:01;;;;;;;;;1.00;1.00;;;;;44.89;12.34;101765.44;5051092;28;45374;-76
2023/09/24 13:38:27;;;;;;;;;1.00;1.00;;;;;45.22;12.61;101754.59;5041440;28;45778;-76
2023/09/24 13:40:52;;;;;;;;;2.25;1.00;;;;;45.66;12.43;101744.84;5043656;28;45312;-77
2023/09/24 13:43:17;;;;;;;;;2.00;1.00;;;;;46.07;12.08;101746.63;5042509;28;45264;-77
2023/09/24 13:45:47;;;;;;;;;2.00;1.00;;;;;46.33;11.26;101744.66;5047929;28;46107;-76
2023/09/24 13:48:15;;;;;;;;;1.00;1.00;;;;;46.19;11.77;101743.50;5034124;28;45256;-77
2023/09/24 13:50:51;;;;;;;;;0.00;0.00;;;;;46.46;11.49;101732.72;5034047;28;45385;-77
2023/09/24 13:53:17;;;;;;;;;1.50;1.50;;;;;46.74;11.42;101736.94;5033898;28;45955;-76
2023/09/24 13:55:43;;;;;;;;;2.25;1.25;;;;;46.78;11.84;101729.56;5033606;28;47158;-77
2023/09/24 13:58:09;;;;;;;;;0.33;0.33;;;;;46.98;11.25;101725.81;5033948;28;45390;-75
2023/09/24 14:00:34;;;;;;;;;2.25;1.25;;;;;47.01;12.17;101726.09;5033884;28;45228;-76
2023/09/24 14:02:59;;;;;;;;;1.00;1.00;;;;;46.58;10.98;101721.91;5033836;28;45386;-77
2023/09/24 14:05:26;;;;;;;;;1.25;0.25;;;;;46.46;11.58;101710.00;5033695;28;46146;-77
2023/09/24 14:07:59;;;;;;;;;1.00;1.00;;;;;46.72;11.84;101699.47;5033790;28;45219;-77
2023/09/24 14:13:09;;;;;;;;;2.25;1.25;;;;;46.50;11.67;101699.81;5034220;28;45481;-76
2023/09/24 14:15:36;;;;;;;;;1.00;1.00;;;;;46.00;11.81;101708.34;5046449;28;45493;-76
2023/09/24 14:18:02;;;;;;;;;2.50;1.50;;;;;45.76;11.74;101691.88;5033689;28;45315;-77
2023/09/24 14:20:31;;;;;;;;;2.75;1.25;;;;;45.79;11.84;101691.28;5050153;28;45481;-76
2023/09/24 14:22:56;;;;;;;;;3.00;1.50;;;;;45.79;12.22;101687.59;5033393;28;45402;-76
2023/09/24 14:25:21;;;;;;;;;1.75;0.50;;;;;45.72;11.93;101684.22;5033419;28;45323;-76
2023/09/24 14:27:47;;;;;;;;;0.25;0.25;;;;;45.42;11.88;101665.16;5033853;28;45439;-76
2023/09/24 14:30:12;;;;;;;;;1.00;1.00;;;;;45.66;12.27;101671.19;5039896;28;45518;-77
2023/09/24 14:32:37;;;;;;;;;0.75;0.75;;;;;45.68;11.95;101666.94;5053569;28;45444;-76
2023/09/24 14:35:04;;;;;;;;;1.00;1.00;;;;;45.62;11.15;101668.03;5053339;28;55743;-77
2023/09/24 14:37:31;;;;;;;;;1.25;0.25;;;;;45.84;11.58;101676.28;5052244;28;45288;-76
2023/09/24 14:39:56;;;;;;;;;1.50;1.50;;;;;45.62;11.80;101673.72;5053430;28;45365;-77
2023/09/24 14:42:21;;;;;;;;;1.25;1.25;;;;;45.38;11.60;101675.34;5054670;28;53530;-76
2023/09/24 14:44:47;;;;;;;;;1.00;1.00;;;;;44.97;11.73;101671.53;5056901;28;50339;-78
2023/09/24 14:47:13;;;;;;;;;1.00;1.00;;;;;44.46;11.95;101663.59;5056902;28;45231;-76
2023/09/24 14:49:38;;;;;;;;;2.25;1.00;;;;;44.50;12.54;101672.38;5057161;28;45425;-76
2023/09/24 14:52:03;;;;;;;;;0.50;0.25;;;;;44.56;12.42;101673.28;5041811;28;45952;-77
2023/09/24 14:54:29;;;;;;;;;1.75;1.50;;;;;44.41;13.27;101671.19;5056992;28;45495;-76
2023/09/24 14:56:55;;;;;;;;;1.25;1.25;;;;;44.33;12.97;101658.41;5041308;28;45426;-76
2023/09/24 14:59:20;;;;;;;;;2.00;2.00;;;;;44.35;13.26;101660.97;5056651;28;45392;-78
2023/09/24 15:01:45;;;;;;;;;3.00;1.50;;;;;44.34;12.91;101648.81;5056365;28;45471;-77
2023/09/24 15:04:11;;;;;;;;;0.67;0.67;;;;;44.13;12.91;101652.63;5056371;28;45496;-76
2023/09/24 15:06:36;;;;;;;;;2.25;1.00;;;;;43.82;12.87;101647.81;5056090;28;45337;-76
2023/09/24 15:09:01;;;;;;;;;1.50;1.00;;;;;44.00;12.96;101667.19;5056365;28;45447;-77
2023/09/24 15:11:27;;;;;;;;;3.00;1.00;;;;;43.67;13.15;101649.38;5055894;28;45473;-76
2023/09/24 15:13:52;;;;;;;;;1.00;1.00;;;;;43.55;13.16;101648.72;5056301;28;46373;-77
2023/09/24 15:16:17;;;;;;;;;2.25;1.00;;;;;43.49;13.15;101640.41;5041533;28;45250;-76
2023/09/24 15:18:43;;;;;;;;;2.50;1.25;;;;;43.18;13.63;101647.72;5036053;28;45331;-77
2023/09/24 15:21:13;;;;;;;;;2.75;0.00;;;;;43.14;13.48;101647.34;5037125;28;45872;-76
2023/09/24 15:23:38;;;;;;;;;0.25;0.25;;;;;43.03;13.26;101637.94;5043022;28;46303;-75
2023/09/24 15:26:05;;;;;;;;;0.25;0.25;;;;;43.02;13.50;101626.91;5055530;28;45341;-76
2023/09/24 15:28:31;;;;;;;;;1.00;1.00;;;;;42.80;13.39;101626.91;5056473;28;45268;-77
2023/09/24 15:30:57;;;;;;;;;1.25;1.00;;;;;42.57;13.39;101632.81;5055633;28;45396;-76
2023/09/24 15:33:23;;;;;;;;;0.25;0.25;;;;;42.43;13.43;101634.31;5054084;28;47532;-77
2023/09/24 15:35:48;;;;;;;;;1.00;0.25;;;;;42.32;14.05;101636.09;5055802;28;45381;-76
2023/09/24 15:38:14;;;;;;;;;3.50;2.50;;;;;42.17;14.13;101636.72;5049093;28;45466;-77
2023/09/24 15:40:39;;;;;;;;;1.50;1.50;;;;;41.77;14.46;101627.59;5035648;28;45372;-76
2023/09/24 15:43:06;;;;;;;;;1.00;1.00;;;;;41.74;14.28;101631.75;5035581;28;46163;-77
2023/09/24 15:45:32;;;;;;;;;1.00;1.00;;;;;41.51;14.70;101631.91;5035872;28;45315;-77
2023/09/24 15:48:01;;;;;;;;;2.25;2.00;;;;;41.06;13.86;101632.69;5042692;28;45500;-77
2023/09/24 15:50:27;;;;;;;;;0.75;0.75;;;;;40.78;14.64;101629.84;5054241;28;45341;-78
2023/09/24 15:52:52;;;;;;;;;2.00;1.00;;;;;40.43;14.70;101615.84;5055314;28;45926;-76
2023/09/24 15:55:17;;;;;;;;;0.75;0.75;;;;;40.37;15.03;101625.25;5055318;28;45392;-77
2023/09/24 15:57:43;;;;;;;;;1.75;1.75;;;;;39.94;15.26;101620.84;5055730;28;45337;-76
2023/09/24 16:00:10;;;;;;;;;3.25;0.25;;;;;39.68;16.08;101612.84;5055405;28;45667;-76